sensor_id;sensor_type;location;lat;lon;timestamp;pressure;altitude;pressure_sealevel;temperature;humidity
41688;BME280;27371;42.686;23.362;2023-05-03T00:00:59;165395.19;;;12.26;40.67
41688;BME280;27371;42.686;23.362;2023-05-03T00:03:28;165420.63;;;12.36;40.85
41688;BME280;27371;42.686;23.362;2023-05-03T00:05:55;165408.56;;;12.31;40.73
41688;BME280;27371;42.686;23.362;2023-05-03T00:08:21;165400.56;;;12.28;40.94
41688;BME280;27371;42.686;23.362;2023-05-03T00:10:46;165371.13;;;12.17;41.01
41688;BME280;27371;42.686;23.362;2023-05-03T00:13:12;165355.09;;;12.11;40.92
41688;BME280;27371;42.686;23.362;2023-05-03T00:15:37;165348.41;;;12.08;41.24
41688;BME280;27371;42.686;23.362;2023-05-03T00:18:03;165310.97;;;11.94;41.57
41688;BME280;27371;42.686;23.362;2023-05-03T00:20:29;165330.97;;;12.01;41.98
41688;BME280;27371;42.686;23.362;2023-05-03T00:22:55;165339.00;;;12.04;41.81
41688;BME280;27371;42.686;23.362;2023-05-03T00:25:20;165335.03;;;12.03;41.70
41688;BME280;27371;42.686;23.362;2023-05-03T00:27:46;165320.31;;;11.97;41.51
41688;BME280;27371;42.686;23.362;2023-05-03T00:30:12;165340.38;;;12.05;41.52
41688;BME280;27371;42.686;23.362;2023-05-03T00:32:37;165325.69;;;11.99;41.39
41688;BME280;27371;42.686;23.362;2023-05-03T00:35:03;165327.00;;;12.00;41.74
41688;BME280;27371;42.686;23.362;2023-05-03T00:37:28;165296.25;;;11.88;41.46
41688;BME280;27371;42.686;23.362;2023-05-03T00:39:55;165305.59;;;11.92;41.76
41688;BME280;27371;42.686;23.362;2023-05-03T00:42:20;165301.56;;;11.90;41.80
41688;BME280;27371;42.686;23.362;2023-05-03T00:44:48;165306.94;;;11.92;41.65
41688;BME280;27371;42.686;23.362;2023-05-03T00:47:14;165289.56;;;11.86;41.82
41688;BME280;27371;42.686;23.362;2023-05-03T00:49:41;165282.81;;;11.83;41.84
41688;BME280;27371;42.686;23.362;2023-05-03T00:52:07;165290.88;;;11.86;41.98
41688;BME280;27371;42.686;23.362;2023-05-03T00:54:33;165258.72;;;11.74;42.15
41688;BME280;27371;42.686;23.362;2023-05-03T00:56:59;165282.81;;;11.83;42.10
41688;BME280;27371;42.686;23.362;2023-05-03T00:59:27;165256.06;;;11.73;42.35
41688;BME280;27371;42.686;23.362;2023-05-03T01:01:52;165260.09;;;11.74;42.40
41688;BME280;27371;42.686;23.362;2023-05-03T01:04:19;165227.97;;;11.62;42.42
41688;BME280;27371;42.686;23.362;2023-05-03T01:07:06;165245.34;;;11.69;42.53
41688;BME280;27371;42.686;23.362;2023-05-03T01:09:51;165236.00;;;11.65;42.60
41688;BME280;27371;42.686;23.362;2023-05-03T01:15:16;165217.31;;;11.58;42.71
41688;BME280;27371;42.686;23.362;2023-05-03T01:17:50;165214.59;;;11.57;42.90
41688;BME280;27371;42.686;23.362;2023-05-03T01:20:22;165207.91;;;11.54;43.22
41688;BME280;27371;42.686;23.362;2023-05-03T01:23:28;165224.00;;;11.61;43.25
41688;BME280;27371;42.686;23.362;2023-05-03T01:25:55;165218.63;;;11.58;43.21
41688;BME280;27371;42.686;23.362;2023-05-03T01:28:21;165206.59;;;11.54;43.20
41688;BME280;27371;42.686;23.362;2023-05-03T01:30:49;165215.94;;;11.57;43.31
41688;BME280;27371;42.686;23.362;2023-05-03T01:33:29;165187.84;;;11.47;43.36
41688;BME280;27371;42.686;23.362;2023-05-03T01:36:12;165174.50;;;11.42;43.66
41688;BME280;27371;42.686;23.362;2023-05-03T01:38:40;165181.19;;;11.44;43.57
41688;BME280;27371;42.686;23.362;2023-05-03T01:41:09;165173.13;;;11.41;44.00
41688;BME280;27371;42.686;23.362;2023-05-03T01:43:37;165157.09;;;11.35;44.01
41688;BME280;27371;42.686;23.362;2023-05-03T01:46:03;165141.06;;;11.29;44.04
41688;BME280;27371;42.686;23.362;2023-05-03T01:48:30;165139.75;;;11.28;44.19
41688;BME280;27371;42.686;23.362;2023-05-03T01:50:55;165100.94;;;11.13;44.45
41688;BME280;27371;42.686;23.362;2023-05-03T01:53:21;165143.72;;;11.30;44.33
41688;BME280;27371;42.686;23.362;2023-05-03T01:55:46;165096.97;;;11.12;44.37
41688;BME280;27371;42.686;23.362;2023-05-03T01:58:11;165135.72;;;11.27;44.49
41688;BME280;27371;42.686;23.362;2023-05-03T02:00:37;165129.03;;;11.24;44.56
41688;BME280;27371;42.686;23.362;2023-05-03T02:03:03;165110.34;;;11.17;44.94
41688;BME280;27371;42.686;23.362;2023-05-03T02:05:28;165090.28;;;11.09;44.90
41688;BME280;27371;42.686;23.362;2023-05-03T02:07:54;165083.59;;;11.07;44.89
41688;BME280;27371;42.686;23.362;2023-05-03T02:10:20;165098.28;;;11.12;45.19
41688;BME280;27371;42.686;23.362;2023-05-03T02:12:45;165072.91;;;11.03;45.35
41688;BME280;27371;42.686;23.362;2023-05-03T02:15:11;165066.22;;;11.00;45.43
41688;BME280;27371;42.686;23.362;2023-05-03T02:17:37;165082.25;;;11.06;45.33
41688;BME280;27371;42.686;23.362;2023-05-03T02:20:04;165090.28;;;11.09;45.68
41688;BME280;27371;42.686;23.362;2023-05-03T02:22:30;165078.22;;;11.05;45.44
41688;BME280;27371;42.686;23.362;2023-05-03T02:24:56;165067.56;;;11.01;45.43
41688;BME280;27371;42.686;23.362;2023-05-03T02:27:23;165067.56;;;11.01;45.45
41688;BME280;27371;42.686;23.362;2023-05-03T02:29:48;165031.47;;;10.87;45.52
41688;BME280;27371;42.686;23.362;2023-05-03T02:32:14;165066.22;;;11.00;45.28
41688;BME280;27371;42.686;23.362;2023-05-03T02:34:40;165068.88;;;11.01;45.77
41688;BME280;27371;42.686;23.362;2023-05-03T02:37:05;165063.53;;;10.99;45.93
41688;BME280;27371;42.686;23.362;2023-05-03T02:39:31;165060.88;;;10.98;46.07
41688;BME280;27371;42.686;23.362;2023-05-03T02:41:56;165052.84;;;10.95;46.16
41688;BME280;27371;42.686;23.362;2023-05-03T02:44:22;165039.47;;;10.90;46.10
41688;BME280;27371;42.686;23.362;2023-05-03T02:46:48;165042.13;;;10.91;45.62
41688;BME280;27371;42.686;23.362;2023-05-03T02:49:13;165048.81;;;10.93;45.89
41688;BME280;27371;42.686;23.362;2023-05-03T02:51:39;165042.13;;;10.91;46.31
41688;BME280;27371;42.686;23.362;2023-05-03T02:54:05;165044.84;;;10.92;45.94
41688;BME280;27371;42.686;23.362;2023-05-03T02:56:31;165047.50;;;10.93;46.14
41688;BME280;27371;42.686;23.362;2023-05-03T02:58:57;165039.47;;;10.90;46.39
41688;BME280;27371;42.686;23.362;2023-05-03T03:01:23;165034.13;;;10.88;46.57
41688;BME280;27371;42.686;23.362;2023-05-03T03:03:48;165008.75;;;10.78;46.41
41688;BME280;27371;42.686;23.362;2023-05-03T03:06:14;165004.72;;;10.77;46.84
41688;BME280;27371;42.686;23.362;2023-05-03T03:08:40;164980.69;;;10.67;47.00
41688;BME280;27371;42.686;23.362;2023-05-03T03:11:05;164964.66;;;10.61;47.19
41688;BME280;27371;42.686;23.362;2023-05-03T03:13:31;164983.34;;;10.68;47.38
41688;BME280;27371;42.686;23.362;2023-05-03T03:15:57;164983.34;;;10.68;47.45
41688;BME280;27371;42.686;23.362;2023-05-03T03:18:22;164939.25;;;10.52;47.96
41688;BME280;27371;42.686;23.362;2023-05-03T03:20:48;164952.63;;;10.57;48.20
41688;BME280;27371;42.686;23.362;2023-05-03T03:23:14;164939.25;;;10.52;48.45
41688;BME280;27371;42.686;23.362;2023-05-03T03:25:40;164964.66;;;10.61;48.75
41688;BME280;27371;42.686;23.362;2023-05-03T03:28:06;164961.97;;;10.60;48.44
41688;BME280;27371;42.686;23.362;2023-05-03T03:30:31;164944.59;;;10.54;48.82
41688;BME280;27371;42.686;23.362;2023-05-03T03:32:57;164949.91;;;10.56;48.62
41688;BME280;27371;42.686;23.362;2023-05-03T03:35:22;164963.28;;;10.61;48.61
41688;BME280;27371;42.686;23.362;2023-05-03T03:37:48;164953.94;;;10.57;48.92
41688;BME280;27371;42.686;23.362;2023-05-03T03:40:14;164920.53;;;10.44;49.08
41688;BME280;27371;42.686;23.362;2023-05-03T03:42:39;164944.59;;;10.54;49.31
41688;BME280;27371;42.686;23.362;2023-05-03T03:45:05;164960.63;;;10.60;48.98
41688;BME280;27371;42.686;23.362;2023-05-03T03:47:31;164990.03;;;10.71;48.67
41688;BME280;27371;42.686;23.362;2023-05-03T03:49:58;165000.75;;;10.75;48.30
41688;BME280;27371;42.686;23.362;2023-05-03T03:52:24;165030.16;;;10.86;48.07
41688;BME280;27371;42.686;23.362;2023-05-03T03:54:50;165035.47;;;10.88;48.04
41688;BME280;27371;42.686;23.362;2023-05-03T03:57:16;165026.09;;;10.85;47.67
41688;BME280;27371;42.686;23.362;2023-05-03T03:59:42;165032.81;;;10.87;48.25
41688;BME280;27371;42.686;23.362;2023-05-03T04:02:07;165051.53;;;10.95;47.44
41688;BME280;27371;42.686;23.362;2023-05-03T04:04:33;165055.50;;;10.96;47.70
41688;BME280;27371;42.686;23.362;2023-05-03T04:06:58;165028.75;;;10.86;47.60
41688;BME280;27371;42.686;23.362;2023-05-03T04:09:24;165022.09;;;10.83;47.53
41688;BME280;27371;42.686;23.362;2023-05-03T04:11:49;165022.09;;;10.83;47.66
41688;BME280;27371;42.686;23.362;2023-05-03T04:14:15;165031.47;;;10.87;48.14
41688;BME280;27371;42.686;23.362;2023-05-03T04:16:40;165072.91;;;11.03;48.07
41688;BME280;27371;42.686;23.362;2023-05-03T04:19:06;165058.16;;;10.97;47.93
41688;BME280;27371;42.686;23.362;2023-05-03T04:21:31;165064.84;;;11.00;47.51
41688;BME280;27371;42.686;23.362;2023-05-03T04:23:57;165056.84;;;10.97;47.69
41688;BME280;27371;42.686;23.362;2023-05-03T04:26:22;165054.19;;;10.96;47.45
41688;BME280;27371;42.686;23.362;2023-05-03T04:28:49;165043.47;;;10.91;47.50
41688;BME280;27371;42.686;23.362;2023-05-03T04:31:15;165046.19;;;10.92;47.55
41688;BME280;27371;42.686;23.362;2023-05-03T04:33:40;165071.53;;;11.02;48.27
41688;BME280;27371;42.686;23.362;2023-05-03T04:36:07;165074.25;;;11.03;49.15
41688;BME280;27371;42.686;23.362;2023-05-03T04:38:33;165060.88;;;10.98;50.13
41688;BME280;27371;42.686;23.362;2023-05-03T04:40:59;165054.19;;;10.96;50.64
41688;BME280;27371;42.686;23.362;2023-05-03T04:43:25;165042.13;;;10.91;51.06
41688;BME280;27371;42.686;23.362;2023-05-03T04:45:53;165046.19;;;10.92;51.76
41688;BME280;27371;42.686;23.362;2023-05-03T04:48:19;165042.13;;;10.91;51.89
41688;BME280;27371;42.686;23.362;2023-05-03T04:50:45;165038.16;;;10.89;52.75
41688;BME280;27371;42.686;23.362;2023-05-03T04:53:10;165044.84;;;10.92;53.29
41688;BME280;27371;42.686;23.362;2023-05-03T04:55:36;165027.44;;;10.85;53.92
41688;BME280;27371;42.686;23.362;2023-05-03T04:58:01;165030.16;;;10.86;53.09
41688;BME280;27371;42.686;23.362;2023-05-03T05:00:27;164990.03;;;10.71;52.59
41688;BME280;27371;42.686;23.362;2023-05-03T05:02:52;164920.53;;;10.44;52.91
41688;BME280;27371;42.686;23.362;2023-05-03T05:05:18;164944.59;;;10.54;53.97
41688;BME280;27371;42.686;23.362;2023-05-03T05:07:44;164935.22;;;10.50;54.99
41688;BME280;27371;42.686;23.362;2023-05-03T05:10:09;164929.91;;;10.48;56.10
41688;BME280;27371;42.686;23.362;2023-05-03T05:12:35;164887.16;;;10.32;56.90
41688;BME280;27371;42.686;23.362;2023-05-03T05:15:00;164852.34;;;10.18;57.82
41688;BME280;27371;42.686;23.362;2023-05-03T05:17:26;164872.41;;;10.26;57.51
41688;BME280;27371;42.686;23.362;2023-05-03T05:19:51;164853.69;;;10.19;56.81
41688;BME280;27371;42.686;23.362;2023-05-03T05:22:18;164804.25;;;10.00;57.93
41688;BME280;27371;42.686;23.362;2023-05-03T05:24:44;164813.63;;;10.03;58.28
41688;BME280;27371;42.686;23.362;2023-05-03T05:27:09;164797.56;;;9.97;58.86
41688;BME280;27371;42.686;23.362;2023-05-03T05:29:35;164792.25;;;9.95;59.02
41688;BME280;27371;42.686;23.362;2023-05-03T05:32:01;164806.94;;;10.01;59.19
41688;BME280;27371;42.686;23.362;2023-05-03T05:34:28;164818.94;;;10.06;59.55
41688;BME280;27371;42.686;23.362;2023-05-03T05:36:53;164841.63;;;10.14;59.66
41688;BME280;27371;42.686;23.362;2023-05-03T05:39:20;164869.69;;;10.25;58.89
41688;BME280;27371;42.686;23.362;2023-05-03T05:41:47;164908.53;;;10.40;59.15
41688;BME280;27371;42.686;23.362;2023-05-03T05:44:13;164908.53;;;10.40;57.98
41688;BME280;27371;42.686;23.362;2023-05-03T05:46:38;164963.28;;;10.61;58.81
41688;BME280;27371;42.686;23.362;2023-05-03T05:49:04;164984.66;;;10.69;56.79
41688;BME280;27371;42.686;23.362;2023-05-03T05:51:30;164984.66;;;10.69;57.05
41688;BME280;27371;42.686;23.362;2023-05-03T05:53:56;164999.38;;;10.75;57.55
41688;BME280;27371;42.686;23.362;2023-05-03T05:56:21;165031.47;;;10.87;57.02
41688;BME280;27371;42.686;23.362;2023-05-03T05:58:47;165024.78;;;10.84;57.08
41688;BME280;27371;42.686;23.362;2023-05-03T06:01:12;165030.16;;;10.86;56.31
41688;BME280;27371;42.686;23.362;2023-05-03T06:03:38;165011.41;;;10.79;57.45
41688;BME280;27371;42.686;23.362;2023-05-03T06:06:04;165007.38;;;10.78;57.87
41688;BME280;27371;42.686;23.362;2023-05-03T06:08:29;164994.06;;;10.73;57.28
41688;BME280;27371;42.686;23.362;2023-05-03T06:10:54;164974.00;;;10.65;57.89
41688;BME280;27371;42.686;23.362;2023-05-03T06:13:21;164955.28;;;10.58;59.19
41688;BME280;27371;42.686;23.362;2023-05-03T06:15:47;164848.31;;;10.17;59.85
41688;BME280;27371;42.686;23.362;2023-05-03T06:18:12;164948.59;;;10.55;59.52
41688;BME280;27371;42.686;23.362;2023-05-03T06:20:38;164952.63;;;10.57;58.74
41688;BME280;27371;42.686;23.362;2023-05-03T06:23:03;164935.22;;;10.50;58.86
41688;BME280;27371;42.686;23.362;2023-05-03T06:25:29;164943.28;;;10.53;59.19
41688;BME280;27371;42.686;23.362;2023-05-03T06:27:54;164936.59;;;10.51;59.31
41688;BME280;27371;42.686;23.362;2023-05-03T06:30:20;164957.97;;;10.59;58.69
41688;BME280;27371;42.686;23.362;2023-05-03T06:32:47;164951.28;;;10.56;59.51
41688;BME280;27371;42.686;23.362;2023-05-03T06:35:13;164957.97;;;10.59;59.16
41688;BME280;27371;42.686;23.362;2023-05-03T06:37:39;164988.69;;;10.70;58.82
41688;BME280;27371;42.686;23.362;2023-05-03T06:40:08;165002.06;;;10.76;58.72
41688;BME280;27371;42.686;23.362;2023-05-03T06:42:33;164998.03;;;10.74;58.85
41688;BME280;27371;42.686;23.362;2023-05-03T06:44:59;165043.47;;;10.91;58.73
41688;BME280;27371;42.686;23.362;2023-05-03T06:47:24;165054.19;;;10.96;57.58
41688;BME280;27371;42.686;23.362;2023-05-03T06:49:50;165046.19;;;10.92;57.22
41688;BME280;27371;42.686;23.362;2023-05-03T06:52:15;165106.31;;;11.15;56.97
41688;BME280;27371;42.686;23.362;2023-05-03T06:54:41;165092.94;;;11.10;55.94
41688;BME280;27371;42.686;23.362;2023-05-03T06:57:06;165103.66;;;11.14;56.55
41688;BME280;27371;42.686;23.362;2023-05-03T06:59:32;165138.41;;;11.28;55.53
41688;BME280;27371;42.686;23.362;2023-05-03T07:01:57;165117.03;;;11.20;54.92
41688;BME280;27371;42.686;23.362;2023-05-03T07:04:23;165129.03;;;11.24;55.28
41688;BME280;27371;42.686;23.362;2023-05-03T07:06:48;165117.03;;;11.20;55.77
41688;BME280;27371;42.686;23.362;2023-05-03T07:09:14;165133.06;;;11.26;55.32
41688;BME280;27371;42.686;23.362;2023-05-03T07:11:39;165143.72;;;11.30;55.55
41688;BME280;27371;42.686;23.362;2023-05-03T07:14:11;165139.75;;;11.28;55.60
41688;BME280;27371;42.686;23.362;2023-05-03T07:16:36;165147.75;;;11.31;56.07
41688;BME280;27371;42.686;23.362;2023-05-03T07:19:02;165162.47;;;11.37;55.82
41688;BME280;27371;42.686;23.362;2023-05-03T07:21:27;165162.47;;;11.37;55.44
41688;BME280;27371;42.686;23.362;2023-05-03T07:23:53;165157.09;;;11.35;56.13
41688;BME280;27371;42.686;23.362;2023-05-03T07:26:19;165149.09;;;11.32;56.09
41688;BME280;27371;42.686;23.362;2023-05-03T07:28:44;165137.03;;;11.27;56.74
41688;BME280;27371;42.686;23.362;2023-05-03T07:31:10;165157.09;;;11.35;57.21
41688;BME280;27371;42.686;23.362;2023-05-03T07:33:36;165163.78;;;11.37;57.51
41688;BME280;27371;42.686;23.362;2023-05-03T07:36:03;165169.16;;;11.40;56.91
41688;BME280;27371;42.686;23.362;2023-05-03T07:38:29;165145.09;;;11.30;57.00
41688;BME280;27371;42.686;23.362;2023-05-03T07:40:54;165135.72;;;11.27;57.10
41688;BME280;27371;42.686;23.362;2023-05-03T07:43:20;165109.00;;;11.17;57.90
41688;BME280;27371;42.686;23.362;2023-05-03T07:45:48;165107.63;;;11.16;57.92
41688;BME280;27371;42.686;23.362;2023-05-03T07:48:13;165096.97;;;11.12;58.10
41688;BME280;27371;42.686;23.362;2023-05-03T07:50:43;165111.66;;;11.18;58.29
41688;BME280;27371;42.686;23.362;2023-05-03T07:53:09;165080.94;;;11.06;58.61
41688;BME280;27371;42.686;23.362;2023-05-03T07:55:35;165117.03;;;11.20;58.28
41688;BME280;27371;42.686;23.362;2023-05-03T07:58:01;165118.34;;;11.20;58.62
41688;BME280;27371;42.686;23.362;2023-05-03T08:00:27;165100.94;;;11.13;58.79
41688;BME280;27371;42.686;23.362;2023-05-03T08:02:53;165075.56;;;11.04;59.07
41688;BME280;27371;42.686;23.362;2023-05-03T08:05:19;165103.66;;;11.14;58.82
41688;BME280;27371;42.686;23.362;2023-05-03T08:07:44;165095.63;;;11.11;59.29
41688;BME280;27371;42.686;23.362;2023-05-03T08:10:10;165135.72;;;11.27;59.45
41688;BME280;27371;42.686;23.362;2023-05-03T08:12:35;165145.09;;;11.30;59.69
41688;BME280;27371;42.686;23.362;2023-05-03T08:15:01;165157.09;;;11.35;59.55
41688;BME280;27371;42.686;23.362;2023-05-03T08:17:29;165182.53;;;11.45;59.60
41688;BME280;27371;42.686;23.362;2023-05-03T08:19:55;165189.22;;;11.47;59.42
41688;BME280;27371;42.686;23.362;2023-05-03T08:22:21;165198.56;;;11.51;59.74
41688;BME280;27371;42.686;23.362;2023-05-03T08:24:49;165210.63;;;11.55;59.82
41688;BME280;27371;42.686;23.362;2023-05-03T08:27:15;165274.81;;;11.80;58.98
41688;BME280;27371;42.686;23.362;2023-05-03T08:29:41;165284.16;;;11.84;59.32
41688;BME280;27371;42.686;23.362;2023-05-03T08:32:07;165352.38;;;12.10;58.65
41688;BME280;27371;42.686;23.362;2023-05-03T08:34:32;165432.63;;;12.40;57.03
41688;BME280;27371;42.686;23.362;2023-05-03T08:36:58;165490.16;;;12.62;57.05
41688;BME280;27371;42.686;23.362;2023-05-03T08:39:23;165629.38;;;13.15;55.44
41688;BME280;27371;42.686;23.362;2023-05-03T08:41:52;165669.53;;;13.31;54.23
41688;BME280;27371;42.686;23.362;2023-05-03T08:44:22;165699.00;;;13.42;53.00
41688;BME280;27371;42.686;23.362;2023-05-03T08:46:51;165772.66;;;13.70;52.29
41688;BME280;27371;42.686;23.362;2023-05-03T08:49:17;165826.19;;;13.91;52.38
41688;BME280;27371;42.686;23.362;2023-05-03T08:51:46;165877.06;;;14.10;51.44
41688;BME280;27371;42.686;23.362;2023-05-03T08:54:15;165980.19;;;14.49;50.42
41688;BME280;27371;42.686;23.362;2023-05-03T08:56:44;165919.94;;;14.26;50.34
41688;BME280;27371;42.686;23.362;2023-05-03T08:59:12;165910.56;;;14.23;50.48
41688;BME280;27371;42.686;23.362;2023-05-03T09:01:38;165863.69;;;14.05;51.15
41688;BME280;27371;42.686;23.362;2023-05-03T09:04:05;165852.97;;;14.01;52.01
41688;BME280;27371;42.686;23.362;2023-05-03T09:06:31;165788.72;;;13.76;52.65
41688;BME280;27371;42.686;23.362;2023-05-03T09:08:58;165808.81;;;13.84;53.19
41688;BME280;27371;42.686;23.362;2023-05-03T09:11:26;165859.69;;;14.03;52.95
41688;BME280;27371;42.686;23.362;2023-05-03T09:13:52;165925.28;;;14.29;51.43
41688;BME280;27371;42.686;23.362;2023-05-03T09:16:25;165948.06;;;14.37;51.25
41688;BME280;27371;42.686;23.362;2023-05-03T09:18:59;165957.41;;;14.41;51.47
41688;BME280;27371;42.686;23.362;2023-05-03T09:21:25;165997.66;;;14.56;51.50
41688;BME280;27371;42.686;23.362;2023-05-03T09:23:50;166029.78;;;14.68;51.59
41688;BME280;27371;42.686;23.362;2023-05-03T09:26:30;166074.00;;;14.85;51.41
41688;BME280;27371;42.686;23.362;2023-05-03T09:28:59;166040.53;;;14.73;50.79
41688;BME280;27371;42.686;23.362;2023-05-03T09:31:28;166082.03;;;14.88;51.57
41688;BME280;27371;42.686;23.362;2023-05-03T09:33:55;166103.47;;;14.97;51.29
41688;BME280;27371;42.686;23.362;2023-05-03T09:36:20;166212.00;;;15.38;49.87
41688;BME280;27371;42.686;23.362;2023-05-03T09:38:46;166189.22;;;15.29;49.32
41688;BME280;27371;42.686;23.362;2023-05-03T09:41:12;166213.38;;;15.39;49.06
41688;BME280;27371;42.686;23.362;2023-05-03T09:43:51;166203.97;;;15.35;48.80
41688;BME280;27371;42.686;23.362;2023-05-03T09:46:17;166206.66;;;15.36;49.24
41688;BME280;27371;42.686;23.362;2023-05-03T09:48:43;166197.25;;;15.32;49.36
41688;BME280;27371;42.686;23.362;2023-05-03T09:51:10;166262.91;;;15.57;49.47
41688;BME280;27371;42.686;23.362;2023-05-03T09:53:37;166304.53;;;15.73;49.03
41688;BME280;27371;42.686;23.362;2023-05-03T09:56:04;166262.91;;;15.57;48.97
41688;BME280;27371;42.686;23.362;2023-05-03T09:58:34;166344.75;;;15.89;49.19
41688;BME280;27371;42.686;23.362;2023-05-03T10:01:01;166386.31;;;16.05;48.49
41688;BME280;27371;42.686;23.362;2023-05-03T10:06:05;166501.63;;;16.48;47.03
41688;BME280;27371;42.686;23.362;2023-05-03T10:08:51;166438.59;;;16.24;46.65
41688;BME280;27371;42.686;23.362;2023-05-03T10:11:18;166486.81;;;16.43;46.98
41688;BME280;27371;42.686;23.362;2023-05-03T10:13:44;166506.94;;;16.51;46.94
41688;BME280;27371;42.686;23.362;2023-05-03T10:16:13;166480.16;;;16.40;47.03
41688;BME280;27371;42.686;23.362;2023-05-03T10:18:51;166442.59;;;16.26;47.71
41688;BME280;27371;42.686;23.362;2023-05-03T10:21:24;166456.00;;;16.31;47.81
41688;BME280;27371;42.686;23.362;2023-05-03T10:24:14;166539.16;;;16.63;47.23
41688;BME280;27371;42.686;23.362;2023-05-03T10:26:47;166552.56;;;16.68;47.37
41688;BME280;27371;42.686;23.362;2023-05-03T10:32:29;166600.88;;;16.86;46.62
41688;BME280;27371;42.686;23.362;2023-05-03T10:34:56;166580.75;;;16.79;47.11
41688;BME280;27371;42.686;23.362;2023-05-03T10:37:25;166434.56;;;16.23;47.26
41688;BME280;27371;42.686;23.362;2023-05-03T10:39:52;166595.53;;;16.84;46.25
41688;BME280;27371;42.686;23.362;2023-05-03T10:42:20;166571.31;;;16.75;46.47
41688;BME280;27371;42.686;23.362;2023-05-03T10:44:51;166603.59;;;16.87;46.45
41688;BME280;27371;42.686;23.362;2023-05-03T10:47:23;166594.16;;;16.84;46.48
41688;BME280;27371;42.686;23.362;2023-05-03T10:55:20;166537.81;;;16.62;47.14
41688;BME280;27371;42.686;23.362;2023-05-03T10:57:47;166513.66;;;16.53;47.34
41688;BME280;27371;42.686;23.362;2023-05-03T11:00:16;166513.66;;;16.53;47.54
41688;BME280;27371;42.686;23.362;2023-05-03T11:05:35;166485.50;;;16.42;48.35
41688;BME280;27371;42.686;23.362;2023-05-03T11:08:26;166493.53;;;16.45;48.98
41688;BME280;27371;42.686;23.362;2023-05-03T11:10:59;166489.53;;;16.44;49.14
41688;BME280;27371;42.686;23.362;2023-05-03T11:13:25;166547.19;;;16.66;49.47
41688;BME280;27371;42.686;23.362;2023-05-03T11:15:53;166603.59;;;16.87;49.33
41688;BME280;27371;42.686;23.362;2023-05-03T11:18:19;166635.75;;;17.00;48.59
41688;BME280;27371;42.686;23.362;2023-05-03T11:20:45;166625.03;;;16.96;48.33
41688;BME280;27371;42.686;23.362;2023-05-03T11:23:11;166598.22;;;16.85;48.40
41688;BME280;27371;42.686;23.362;2023-05-03T11:25:36;166595.53;;;16.84;48.72
41688;BME280;27371;42.686;23.362;2023-05-03T11:28:03;166596.88;;;16.85;48.41
41688;BME280;27371;42.686;23.362;2023-05-03T11:30:32;166523.03;;;16.57;48.88
41688;BME280;27371;42.686;23.362;2023-05-03T11:32:58;166492.19;;;16.45;49.66
41688;BME280;27371;42.686;23.362;2023-05-03T11:35:24;166469.41;;;16.36;50.12
41688;BME280;27371;42.686;23.362;2023-05-03T11:37:51;166481.50;;;16.41;50.33
41688;BME280;27371;42.686;23.362;2023-05-03T11:40:18;166531.13;;;16.60;49.64
41688;BME280;27371;42.686;23.362;2023-05-03T11:42:59;166560.63;;;16.71;49.08
41688;BME280;27371;42.686;23.362;2023-05-03T11:45:31;166553.91;;;16.68;49.29
41688;BME280;27371;42.686;23.362;2023-05-03T11:48:01;166571.31;;;16.75;48.78
41688;BME280;27371;42.686;23.362;2023-05-03T11:53:14;166638.41;;;17.01;48.90
41688;BME280;27371;42.686;23.362;2023-05-03T11:55:41;166671.97;;;17.13;48.87
41688;BME280;27371;42.686;23.362;2023-05-03T11:58:18;166671.97;;;17.13;49.00
41688;BME280;27371;42.686;23.362;2023-05-03T12:00:55;166642.47;;;17.02;48.70
41688;BME280;27371;42.686;23.362;2023-05-03T12:03:26;166560.63;;;16.71;49.48
41688;BME280;27371;42.686;23.362;2023-05-03T12:05:55;166611.63;;;16.90;49.17
41688;BME280;27371;42.686;23.362;2023-05-03T12:08:27;166643.78;;;17.03;48.75
41688;BME280;27371;42.686;23.362;2023-05-03T12:10:52;166643.78;;;17.03;48.57
41688;BME280;27371;42.686;23.362;2023-05-03T12:16:00;166511.00;;;16.52;49.44
41688;BME280;27371;42.686;23.362;2023-05-03T12:18:26;166481.50;;;16.41;49.82
41688;BME280;27371;42.686;23.362;2023-05-03T12:20:56;166447.97;;;16.28;50.66
41688;BME280;27371;42.686;23.362;2023-05-03T12:23:23;166441.25;;;16.25;50.81
41688;BME280;27371;42.686;23.362;2023-05-03T12:25:48;166460.03;;;16.33;50.61
41688;BME280;27371;42.686;23.362;2023-05-03T12:28:16;166443.97;;;16.27;50.74
41688;BME280;27371;42.686;23.362;2023-05-03T12:30:42;166366.19;;;15.97;51.51
41688;BME280;27371;42.686;23.362;2023-05-03T12:33:08;166325.97;;;15.81;51.94
41688;BME280;27371;42.686;23.362;2023-05-03T12:35:34;166289.72;;;15.68;52.83
41688;BME280;27371;42.686;23.362;2023-05-03T12:38:00;166245.50;;;15.51;53.40
41688;BME280;27371;42.686;23.362;2023-05-03T12:40:27;166191.94;;;15.30;53.98
41688;BME280;27371;42.686;23.362;2023-05-03T12:42:53;166182.50;;;15.27;54.13
41688;BME280;27371;42.686;23.362;2023-05-03T12:45:20;166206.66;;;15.36;54.02
41688;BME280;27371;42.686;23.362;2023-05-03T12:47:46;166224.06;;;15.43;54.21
41688;BME280;27371;42.686;23.362;2023-05-03T12:50:11;166236.16;;;15.47;53.85
41688;BME280;27371;42.686;23.362;2023-05-03T12:52:37;166242.84;;;15.50;53.92
41688;BME280;27371;42.686;23.362;2023-05-03T12:55:06;166248.16;;;15.52;53.94
41688;BME280;27371;42.686;23.362;2023-05-03T12:57:32;166193.25;;;15.31;55.17
41688;BME280;27371;42.686;23.362;2023-05-03T12:59:57;166179.84;;;15.26;56.62
41688;BME280;27371;42.686;23.362;2023-05-03T13:02:24;166147.72;;;15.13;58.04